createdAt,value
2019-02-06T00:02:24.979Z,1.70
2019-02-06T00:05:14.293Z,1.60
2019-02-06T00:07:57.479Z,1.80
2019-02-06T00:10:42.690Z,1.70
2019-02-06T00:13:28.136Z,1.20
2019-02-06T00:16:13.596Z,1.70
2019-02-06T00:18:59.000Z,1.70
2019-02-06T00:21:44.115Z,1.70
2019-02-06T00:24:29.485Z,1.60
2019-02-06T00:27:14.826Z,1.70
2019-02-06T00:29:59.885Z,1.70
2019-02-06T00:32:45.422Z,1.70
2019-02-06T00:35:30.514Z,1.80
2019-02-06T00:38:16.452Z,1.70
2019-02-06T00:41:01.605Z,1.70
2019-02-06T00:43:46.894Z,1.70
2019-02-06T00:46:32.461Z,1.70
2019-02-06T00:49:17.551Z,1.90
2019-02-06T00:52:03.004Z,1.80
2019-02-06T00:54:47.995Z,1.80
2019-02-06T00:57:33.367Z,1.90
2019-02-06T01:00:21.711Z,1.90
2019-02-06T01:03:06.973Z,1.90
2019-02-06T01:05:52.099Z,1.90
2019-02-06T01:08:37.359Z,1.90
2019-02-06T01:11:23.256Z,1.90
2019-02-06T01:14:08.381Z,1.90
2019-02-06T01:16:53.789Z,1.90
2019-02-06T01:19:38.903Z,1.90
2019-02-06T01:22:23.792Z,1.80
2019-02-06T01:25:12.187Z,2.00
2019-02-06T01:27:57.855Z,1.80
2019-02-06T01:30:44.944Z,1.80
2019-02-06T01:33:30.329Z,1.70
2019-02-06T01:36:15.902Z,1.90
2019-02-06T01:39:01.510Z,2.00
2019-02-06T01:41:47.091Z,1.90
2019-02-06T01:44:31.919Z,1.90
2019-02-06T01:47:17.229Z,1.90
2019-02-06T01:50:06.167Z,1.90
2019-02-06T01:52:51.775Z,1.80
2019-02-06T01:55:36.619Z,1.90
2019-02-06T01:58:22.221Z,1.90
2019-02-06T02:01:07.415Z,1.90
2019-02-06T02:03:52.911Z,1.90
2019-02-06T02:06:38.515Z,1.90
2019-02-06T02:09:24.278Z,1.90
2019-02-06T02:12:09.491Z,1.80
2019-02-06T02:14:54.841Z,1.80
2019-02-06T02:17:40.086Z,1.90
2019-02-06T02:20:25.346Z,1.90
2019-02-06T02:23:10.651Z,1.90
2019-02-06T02:25:55.904Z,2.10
2019-02-06T02:28:41.128Z,1.90
2019-02-06T02:31:26.476Z,1.90
2019-02-06T02:34:11.468Z,1.90
2019-02-06T02:36:57.310Z,2.00
2019-02-06T02:39:42.809Z,1.90
2019-02-06T02:42:27.871Z,1.90
2019-02-06T02:45:15.181Z,1.90
2019-02-06T02:48:00.481Z,1.90
2019-02-06T02:50:45.405Z,1.90
2019-02-06T02:53:30.673Z,1.90
2019-02-06T02:56:16.052Z,1.90
2019-02-06T02:59:01.217Z,2.00
2019-02-06T03:01:50.869Z,1.90
2019-02-06T03:04:35.896Z,1.90
2019-02-06T03:07:20.976Z,1.90
2019-02-06T03:10:09.135Z,1.90
2019-02-06T03:12:54.252Z,2.00
2019-02-06T03:15:40.430Z,1.90
2019-02-06T03:18:25.835Z,1.90
2019-02-06T03:21:11.234Z,1.90
2019-02-06T03:23:56.364Z,1.90
2019-02-06T03:26:41.639Z,1.90
2019-02-06T03:29:27.327Z,2.10
2019-02-06T03:32:12.304Z,1.90
2019-02-06T03:34:57.426Z,1.90
2019-02-06T03:37:42.864Z,1.90
2019-02-06T03:40:27.962Z,1.90
2019-02-06T03:43:13.655Z,1.90
2019-02-06T03:45:58.646Z,1.90
2019-02-06T03:48:43.914Z,2.10
2019-02-06T03:51:29.105Z,2.20
2019-02-06T03:54:14.217Z,1.90
2019-02-06T03:56:59.374Z,1.90
2019-02-06T03:59:44.817Z,1.90
2019-02-06T04:02:29.788Z,1.90
2019-02-06T04:05:14.814Z,2.00
2019-02-06T04:07:59.885Z,2.00
2019-02-06T04:10:45.381Z,2.20
2019-02-06T04:13:30.690Z,2.20
2019-02-06T04:16:16.086Z,2.00
2019-02-06T04:19:01.295Z,2.00
2019-02-06T04:21:46.666Z,2.00
2019-02-06T04:24:31.988Z,2.00
2019-02-06T04:27:17.458Z,1.90
2019-02-06T04:30:03.567Z,2.20
2019-02-06T04:32:48.743Z,2.10
2019-02-06T04:35:33.802Z,2.10
2019-02-06T04:38:18.569Z,2.10
2019-02-06T04:41:04.265Z,2.10
2019-02-06T04:43:49.589Z,2.10
2019-02-06T04:46:35.530Z,2.10
2019-02-06T04:49:20.798Z,2.10
2019-02-06T04:52:06.615Z,2.20
2019-02-06T04:54:51.979Z,2.20
2019-02-06T04:57:37.201Z,2.20
2019-02-06T05:00:42.848Z,2.20
2019-02-06T05:03:27.841Z,1.90
2019-02-06T05:06:13.252Z,2.20
2019-02-06T05:08:58.523Z,2.20
2019-02-06T05:11:43.466Z,2.20
2019-02-06T05:14:28.780Z,2.20
2019-02-06T05:17:14.208Z,2.50
2019-02-06T05:20:00.315Z,2.20
2019-02-06T05:22:45.756Z,2.20
2019-02-06T05:25:30.872Z,2.20
2019-02-06T05:28:18.300Z,2.20
2019-02-06T05:31:03.222Z,2.10
2019-02-06T05:33:48.966Z,2.10
2019-02-06T05:36:34.246Z,2.10
2019-02-06T05:39:19.432Z,2.10
2019-02-06T05:42:04.857Z,2.10
2019-02-06T05:44:49.923Z,2.10
2019-02-06T05:47:35.333Z,2.10
2019-02-06T05:50:20.537Z,2.10
2019-02-06T05:53:05.804Z,2.10
2019-02-06T05:55:51.643Z,2.10
2019-02-06T05:58:36.739Z,2.10
2019-02-06T06:01:24.069Z,2.10
2019-02-06T06:04:09.343Z,2.40
2019-02-06T06:06:54.631Z,2.10
2019-02-06T06:09:39.765Z,2.00
2019-02-06T06:12:24.992Z,2.10
2019-02-06T06:15:12.275Z,2.00
2019-02-06T06:17:57.526Z,2.10
2019-02-06T06:20:42.821Z,2.10
2019-02-06T06:23:28.057Z,2.10
2019-02-06T06:26:13.294Z,2.10
2019-02-06T06:28:58.557Z,2.10
2019-02-06T06:31:43.859Z,2.10
2019-02-06T06:34:30.911Z,2.10
2019-02-06T06:37:16.490Z,2.10
2019-02-06T06:40:01.816Z,2.10
2019-02-06T06:42:46.963Z,2.00
2019-02-06T06:45:34.077Z,2.00
2019-02-06T06:48:19.569Z,2.00
2019-02-06T06:51:06.598Z,2.00
2019-02-06T06:53:51.732Z,2.20
2019-02-06T06:56:36.852Z,2.10
2019-02-06T06:59:22.342Z,2.10
2019-02-06T07:02:07.328Z,2.10
2019-02-06T07:04:56.587Z,2.00
2019-02-06T07:07:41.979Z,2.20
2019-02-06T07:10:47.077Z,2.20
2019-02-06T07:13:32.070Z,2.00
2019-02-06T07:16:17.408Z,2.20
2019-02-06T07:19:02.819Z,2.20
2019-02-06T07:21:47.896Z,2.20
2019-02-06T07:24:33.152Z,2.20
2019-02-06T07:27:20.991Z,2.20
2019-02-06T07:30:08.807Z,2.20
2019-02-06T07:32:53.970Z,2.20
2019-02-06T07:35:39.271Z,2.30
2019-02-06T07:38:24.688Z,2.20
2019-02-06T07:41:10.071Z,2.30
2019-02-06T07:43:55.871Z,2.60
2019-02-06T07:46:41.098Z,2.40
2019-02-06T07:49:26.379Z,2.50
2019-02-06T07:52:11.519Z,2.40
2019-02-06T07:54:56.672Z,2.40
2019-02-06T07:57:41.902Z,2.40
2019-02-06T08:00:27.571Z,2.40
2019-02-06T08:03:12.955Z,2.40
2019-02-06T08:05:58.231Z,2.50
2019-02-06T08:08:43.416Z,2.50
2019-02-06T08:11:28.631Z,2.60
2019-02-06T08:14:13.840Z,2.70
2019-02-06T08:16:59.456Z,2.60
2019-02-06T08:19:45.280Z,2.90
2019-02-06T08:22:30.744Z,2.70
2019-02-06T08:25:17.728Z,2.70
2019-02-06T08:28:02.766Z,2.80
2019-02-06T08:30:48.030Z,3.00
2019-02-06T08:33:33.734Z,3.10
2019-02-06T08:36:18.912Z,3.10
2019-02-06T08:39:06.845Z,3.20
2019-02-06T08:41:52.440Z,3.40
2019-02-06T08:44:38.071Z,3.50
2019-02-06T08:47:23.319Z,3.50
2019-02-06T08:50:12.461Z,3.80
2019-02-06T08:52:57.529Z,3.90
2019-02-06T08:55:42.757Z,4.00
2019-02-06T08:58:28.415Z,4.20
2019-02-06T09:01:13.953Z,4.40
2019-02-06T09:03:59.067Z,4.50
2019-02-06T09:06:44.647Z,4.50
2019-02-06T09:09:29.824Z,4.70
2019-02-06T09:12:15.222Z,4.80
2019-02-06T09:15:00.451Z,4.80
2019-02-06T09:17:46.292Z,4.80
2019-02-06T09:20:31.517Z,4.80
2019-02-06T09:23:16.714Z,4.90
2019-02-06T09:26:02.299Z,5.00
2019-02-06T09:28:47.960Z,5.10
2019-02-06T09:31:33.545Z,5.30
2019-02-06T09:34:18.338Z,5.40
2019-02-06T09:37:23.497Z,5.60
2019-02-06T09:40:12.260Z,5.70
2019-02-06T09:42:57.695Z,6.00
2019-02-06T09:45:42.797Z,5.80
2019-02-06T09:48:28.008Z,6.10
2019-02-06T09:51:13.711Z,6.10
2019-02-06T09:53:59.183Z,6.30
2019-02-06T09:56:44.389Z,6.00
2019-02-06T09:59:30.193Z,6.00
2019-02-06T10:02:15.117Z,6.20
2019-02-06T10:05:00.377Z,6.50
2019-02-06T10:07:46.362Z,6.40
2019-02-06T10:10:31.895Z,6.60
2019-02-06T10:13:17.065Z,6.60
2019-02-06T10:16:03.250Z,6.80
2019-02-06T10:18:48.184Z,6.80
2019-02-06T10:21:34.064Z,6.90
2019-02-06T10:24:19.174Z,7.00
2019-02-06T10:27:04.396Z,7.00
2019-02-06T10:29:50.118Z,7.00
2019-02-06T10:32:35.442Z,7.00
2019-02-06T10:35:20.828Z,7.00
2019-02-06T10:38:05.947Z,6.80
2019-02-06T10:40:51.080Z,6.70
2019-02-06T10:43:36.430Z,6.60
2019-02-06T10:46:22.133Z,6.50
2019-02-06T10:49:07.902Z,6.20
2019-02-06T10:51:53.309Z,6.00
2019-02-06T10:54:38.412Z,5.80
2019-02-06T10:57:23.838Z,5.90
2019-02-06T11:00:43.082Z,5.90
2019-02-06T11:03:28.515Z,6.00
2019-02-06T11:06:13.781Z,5.60
2019-02-06T11:08:59.285Z,5.70
2019-02-06T11:11:45.127Z,5.60
2019-02-06T11:14:30.181Z,5.60
2019-02-06T11:17:15.197Z,5.60
2019-02-06T11:20:00.453Z,5.60
2019-02-06T11:22:46.272Z,5.90
2019-02-06T11:25:35.762Z,6.20
2019-02-06T11:28:20.958Z,5.80
2019-02-06T11:31:06.158Z,5.60
2019-02-06T11:33:51.488Z,5.60
2019-02-06T11:36:37.060Z,5.60
2019-02-06T11:39:22.768Z,5.50
2019-02-06T11:42:07.752Z,5.40
2019-02-06T11:44:55.062Z,5.40
2019-02-06T11:47:40.546Z,5.50
2019-02-06T11:50:27.766Z,5.50
2019-02-06T11:53:15.274Z,5.40
2019-02-06T11:56:00.374Z,5.60
2019-02-06T11:58:51.663Z,5.30
2019-02-06T12:01:37.427Z,5.40
2019-02-06T12:04:22.476Z,5.40
2019-02-06T12:07:07.500Z,5.40
2019-02-06T12:09:53.523Z,5.40
2019-02-06T12:12:38.553Z,5.40
2019-02-06T12:15:23.715Z,5.50
2019-02-06T12:18:09.047Z,5.60
2019-02-06T12:20:54.177Z,5.70
2019-02-06T12:23:39.635Z,5.80
2019-02-06T12:26:24.607Z,5.80
2019-02-06T12:29:10.017Z,5.90
2019-02-06T12:31:55.253Z,5.80
2019-02-06T12:34:40.430Z,5.90
2019-02-06T12:37:26.006Z,5.80
2019-02-06T12:40:21.099Z,5.60
2019-02-06T12:43:00.104Z,5.50
2019-02-06T12:45:46.528Z,5.50
2019-02-06T12:48:32.222Z,5.50
2019-02-06T12:51:17.313Z,5.50
2019-02-06T12:54:02.570Z,5.50
2019-02-06T12:56:47.831Z,5.70
2019-02-06T12:59:33.060Z,5.70
2019-02-06T13:02:18.348Z,5.70
2019-02-06T13:05:06.715Z,5.80
2019-02-06T13:07:52.044Z,6.00
2019-02-06T13:10:37.088Z,5.90
2019-02-06T13:13:22.379Z,5.70
2019-02-06T13:16:07.661Z,5.70
2019-02-06T13:18:52.971Z,5.80
2019-02-06T13:21:38.163Z,5.50
2019-02-06T13:24:23.131Z,5.30
2019-02-06T13:27:09.207Z,5.10
2019-02-06T13:29:54.176Z,5.00
2019-02-06T13:32:39.427Z,4.90
2019-02-06T13:35:25.358Z,4.90
2019-02-06T13:38:10.622Z,5.00
2019-02-06T13:40:56.363Z,5.00
2019-02-06T13:43:41.895Z,5.00
2019-02-06T13:46:27.103Z,5.10
2019-02-06T13:49:13.217Z,5.10
2019-02-06T13:51:58.807Z,5.10
2019-02-06T13:54:46.089Z,5.20
2019-02-06T13:57:40.039Z,5.30
2019-02-06T14:00:47.829Z,5.40
2019-02-06T14:03:33.397Z,5.20
2019-02-06T14:06:21.785Z,5.00
2019-02-06T14:09:22.267Z,4.90
2019-02-06T14:11:59.058Z,4.80
2019-02-06T14:14:44.269Z,4.80
2019-02-06T14:17:29.531Z,4.90
2019-02-06T14:20:17.632Z,5.00
2019-02-06T14:23:08.610Z,5.00
2019-02-06T14:26:03.543Z,5.10
2019-02-06T14:29:09.060Z,5.10
2019-02-06T14:32:07.170Z,5.00
2019-02-06T14:35:08.722Z,4.90
2019-02-06T14:38:03.545Z,4.90
2019-02-06T14:40:55.713Z,4.80
2019-02-06T14:44:16.650Z,4.80
2019-02-06T14:47:05.140Z,4.80
2019-02-06T14:50:09.108Z,4.80
2019-02-06T14:53:09.467Z,4.80
2019-02-06T14:56:16.875Z,5.00
2019-02-06T14:59:24.583Z,4.80
2019-02-06T15:02:31.094Z,4.80
2019-02-06T15:05:25.636Z,4.80
2019-02-06T15:08:26.861Z,4.80
2019-02-06T15:11:24.389Z,4.90
2019-02-06T15:14:31.091Z,4.80
2019-02-06T15:17:32.160Z,4.70
2019-02-06T15:20:24.272Z,4.70
2019-02-06T15:23:37.558Z,4.50
2019-02-06T15:26:26.331Z,4.50
2019-02-06T15:29:17.731Z,4.30
2019-02-06T15:32:09.432Z,4.30
2019-02-06T15:35:26.851Z,4.20
2019-02-06T15:38:22.424Z,4.10
2019-02-06T15:41:31.224Z,4.00
2019-02-06T15:44:27.770Z,3.90
2019-02-06T15:47:29.165Z,3.90
2019-02-06T15:50:26.691Z,3.90
2019-02-06T15:53:38.093Z,3.90
2019-02-06T15:56:35.463Z,3.90
2019-02-06T15:59:46.042Z,3.80
2019-02-06T16:02:46.590Z,3.80
2019-02-06T16:06:06.815Z,3.70
2019-02-06T16:08:58.800Z,3.60
2019-02-06T16:11:47.726Z,3.50
2019-02-06T16:14:54.311Z,3.50
2019-02-06T16:18:01.417Z,3.50
2019-02-06T16:21:08.342Z,3.50
2019-02-06T16:23:59.722Z,3.40
2019-02-06T16:27:36.648Z,3.30
2019-02-06T16:30:25.192Z,3.30
2019-02-06T16:33:42.381Z,3.20
2019-02-06T16:36:51.956Z,3.20
2019-02-06T16:39:41.158Z,3.10
2019-02-06T16:42:43.031Z,3.10
2019-02-06T16:45:52.952Z,3.10
2019-02-06T16:48:53.924Z,3.00
2019-02-06T16:51:43.591Z,2.90
2019-02-06T16:54:50.974Z,2.80
2019-02-06T16:57:54.505Z,2.80
2019-02-06T17:00:49.317Z,2.70
2019-02-06T17:03:50.353Z,2.80
2019-02-06T17:06:51.222Z,2.70
2019-02-06T17:10:00.641Z,2.70
2019-02-06T17:12:54.971Z,2.60
2019-02-06T17:16:10.084Z,2.60
2019-02-06T17:19:04.726Z,2.50
2019-02-06T17:22:05.497Z,2.50
2019-02-06T17:24:54.816Z,2.40
2019-02-06T17:27:46.514Z,2.50
2019-02-06T17:30:51.370Z,2.40
2019-02-06T17:33:49.081Z,2.40
2019-02-06T17:36:56.387Z,2.30
2019-02-06T17:39:57.562Z,2.40
2019-02-06T17:42:52.554Z,2.40
2019-02-06T17:45:48.372Z,2.40
2019-02-06T17:48:46.821Z,2.40
2019-02-06T17:51:57.159Z,2.40
2019-02-06T17:55:05.422Z,2.40
2019-02-06T17:57:53.332Z,2.40
2019-02-06T18:01:08.203Z,2.40
2019-02-06T18:03:55.059Z,2.50
2019-02-06T18:06:40.552Z,2.40
2019-02-06T18:09:25.917Z,2.40
2019-02-06T18:12:10.994Z,2.40
2019-02-06T18:14:56.257Z,2.40
2019-02-06T18:17:41.447Z,2.40
2019-02-06T18:20:26.787Z,2.40
2019-02-06T18:23:12.179Z,2.30
2019-02-06T18:25:57.636Z,2.20
2019-02-06T18:28:43.102Z,2.20
2019-02-06T18:31:28.293Z,2.20
2019-02-06T18:34:13.372Z,2.10
2019-02-06T18:36:58.646Z,2.10
2019-02-06T18:39:43.895Z,2.10
2019-02-06T18:42:36.785Z,2.10
2019-02-06T18:45:18.294Z,2.10
2019-02-06T18:48:07.840Z,2.10
2019-02-06T18:50:53.085Z,2.10
2019-02-06T18:53:38.258Z,2.10
2019-02-06T18:56:23.426Z,2.00
2019-02-06T18:59:09.251Z,2.00
2019-02-06T19:01:55.518Z,2.10
2019-02-06T19:04:41.686Z,2.30
2019-02-06T19:07:26.697Z,2.00
2019-02-06T19:10:16.153Z,2.00
2019-02-06T19:13:01.531Z,2.00
2019-02-06T19:15:56.120Z,2.00
2019-02-06T19:18:37.115Z,2.40
2019-02-06T19:21:21.496Z,1.90
2019-02-06T19:24:06.782Z,2.00
2019-02-06T19:26:51.839Z,1.90
2019-02-06T19:29:37.367Z,2.10
2019-02-06T19:32:22.396Z,1.90
2019-02-06T19:35:09.190Z,1.90
2019-02-06T19:37:54.694Z,2.10
2019-02-06T19:40:39.970Z,1.80
2019-02-06T19:43:25.606Z,1.90
2019-02-06T19:46:11.034Z,1.90
2019-02-06T19:48:56.173Z,2.00
2019-02-06T19:51:41.658Z,2.00
2019-02-06T19:54:26.883Z,1.90
2019-02-06T19:57:12.183Z,1.90
2019-02-06T19:59:57.191Z,1.70
2019-02-06T20:02:42.751Z,1.80
2019-02-06T20:05:27.908Z,1.70
2019-02-06T20:08:14.371Z,1.70
2019-02-06T20:10:59.704Z,1.70
2019-02-06T20:13:45.031Z,1.70
2019-02-06T20:16:30.669Z,1.70
2019-02-06T20:19:16.241Z,1.70
2019-02-06T20:22:01.525Z,1.60
2019-02-06T20:24:48.023Z,1.60
2019-02-06T20:27:33.104Z,1.60
2019-02-06T20:30:25.187Z,1.60
2019-02-06T20:33:10.526Z,1.50
2019-02-06T20:35:59.969Z,1.50
2019-02-06T20:38:44.920Z,1.50
2019-02-06T20:41:30.221Z,1.60
2019-02-06T20:44:15.942Z,1.60
2019-02-06T20:47:01.198Z,1.60
2019-02-06T20:50:08.171Z,1.60
2019-02-06T20:52:53.564Z,1.50
2019-02-06T20:55:39.279Z,1.50
2019-02-06T20:58:24.487Z,1.50
2019-02-06T21:01:09.746Z,1.50
2019-02-06T21:03:55.196Z,1.50
2019-02-06T21:06:40.419Z,1.60
2019-02-06T21:09:25.730Z,1.60
2019-02-06T21:12:11.111Z,1.60
2019-02-06T21:14:57.588Z,1.70
2019-02-06T21:17:42.705Z,1.60
2019-02-06T21:20:27.790Z,1.60
2019-02-06T21:23:13.621Z,1.60
2019-02-06T21:25:58.668Z,1.60
2019-02-06T21:28:43.884Z,1.60
2019-02-06T21:31:36.564Z,1.20
2019-02-06T21:34:22.194Z,1.60
2019-02-06T21:37:10.439Z,1.80
2019-02-06T21:39:56.410Z,1.50
2019-02-06T21:42:41.820Z,1.50
2019-02-06T21:45:27.646Z,1.40
2019-02-06T21:48:22.255Z,1.60
2019-02-06T21:51:05.889Z,1.40
2019-02-06T21:53:51.543Z,1.30
2019-02-06T21:56:37.151Z,1.30
2019-02-06T21:59:26.083Z,1.30
2019-02-06T22:02:11.554Z,1.40
2019-02-06T22:04:56.916Z,1.30
2019-02-06T22:07:43.955Z,1.30
2019-02-06T22:10:29.613Z,1.20
2019-02-06T22:13:14.659Z,1.20
2019-02-06T22:15:59.905Z,1.20
2019-02-06T22:18:45.111Z,1.20
2019-02-06T22:21:30.497Z,1.30
2019-02-06T22:24:15.554Z,1.10
2019-02-06T22:27:00.930Z,1.10
2019-02-06T22:29:46.032Z,1.10
2019-02-06T22:32:31.463Z,1.10
2019-02-06T22:35:16.980Z,1.10
2019-02-06T22:38:02.105Z,1.10
2019-02-06T22:40:47.952Z,0.90
2019-02-06T22:43:33.530Z,1.10
2019-02-06T22:46:18.956Z,1.00
2019-02-06T22:49:04.197Z,1.00
2019-02-06T22:51:51.176Z,1.00
2019-02-06T22:54:36.677Z,1.00
2019-02-06T22:57:22.096Z,0.90
2019-02-06T23:00:31.484Z,0.90
2019-02-06T23:03:23.634Z,0.90
2019-02-06T23:06:09.115Z,1.00
2019-02-06T23:08:54.229Z,1.00
2019-02-06T23:11:39.455Z,1.00
2019-02-06T23:14:25.140Z,1.00
2019-02-06T23:17:10.354Z,1.00
2019-02-06T23:19:55.858Z,1.00
2019-02-06T23:22:41.648Z,1.00
2019-02-06T23:25:26.704Z,1.00
2019-02-06T23:28:12.086Z,1.00
2019-02-06T23:30:57.139Z,1.00
2019-02-06T23:33:42.326Z,1.00
2019-02-06T23:36:27.767Z,1.00
2019-02-06T23:39:13.667Z,1.00
2019-02-06T23:41:58.810Z,1.00
2019-02-06T23:44:44.164Z,1.00
2019-02-06T23:47:29.244Z,1.00
2019-02-06T23:50:16.651Z,0.90
2019-02-06T23:53:02.023Z,0.90
2019-02-06T23:55:46.887Z,0.90
2019-02-06T23:58:31.974Z,0.80
